createdAt,value
2018-08-23T00:00:48.575Z,0.00
2018-08-23T00:01:48.769Z,0.00
2018-08-23T00:02:48.964Z,0.00
2018-08-23T00:03:49.172Z,0.00
2018-08-23T00:04:49.375Z,0.00
2018-08-23T00:05:49.560Z,0.00
2018-08-23T00:06:49.753Z,0.00
2018-08-23T00:07:49.985Z,0.00
2018-08-23T00:08:50.138Z,0.00
2018-08-23T00:09:50.362Z,0.00
2018-08-23T00:10:50.524Z,0.00
2018-08-23T00:11:50.720Z,0.00
2018-08-23T00:12:50.918Z,0.00
2018-08-23T00:13:51.150Z,0.00
2018-08-23T00:14:51.293Z,0.00
2018-08-23T00:15:51.489Z,0.00
2018-08-23T00:16:51.705Z,0.00
2018-08-23T00:17:51.873Z,0.00
2018-08-23T00:18:52.068Z,0.00
2018-08-23T00:19:52.261Z,0.00
2018-08-23T00:20:52.454Z,0.00
2018-08-23T00:21:52.644Z,0.00
2018-08-23T00:22:52.845Z,0.00
2018-08-23T00:23:53.039Z,0.00
2018-08-23T00:24:53.232Z,0.00
2018-08-23T00:25:53.425Z,0.00
2018-08-23T00:26:53.625Z,0.00
2018-08-23T00:27:53.812Z,0.00
2018-08-23T00:28:54.006Z,0.00
2018-08-23T00:29:54.205Z,0.00
2018-08-23T00:30:54.400Z,0.00
2018-08-23T00:31:54.592Z,0.00
2018-08-23T00:32:54.788Z,0.00
2018-08-23T00:33:54.975Z,0.00
2018-08-23T00:34:55.185Z,0.00
2018-08-23T00:35:55.401Z,0.00
2018-08-23T00:36:55.597Z,0.00
2018-08-23T00:37:55.790Z,0.00
2018-08-23T00:38:55.982Z,0.00
2018-08-23T00:39:56.174Z,0.00
2018-08-23T00:40:56.367Z,0.00
2018-08-23T00:41:56.563Z,0.00
2018-08-23T00:42:56.753Z,0.00
2018-08-23T00:43:56.957Z,0.00
2018-08-23T00:44:57.149Z,0.00
2018-08-23T00:45:57.342Z,0.00
2018-08-23T00:46:57.538Z,0.00
2018-08-23T00:47:57.729Z,0.00
2018-08-23T00:48:57.930Z,0.00
2018-08-23T00:49:58.125Z,0.00
2018-08-23T00:50:58.315Z,0.00
2018-08-23T00:51:58.509Z,0.00
2018-08-23T00:52:58.704Z,0.00
2018-08-23T00:53:58.897Z,0.00
2018-08-23T00:54:59.090Z,0.00
2018-08-23T00:55:59.285Z,0.00
2018-08-23T00:56:59.480Z,0.00
2018-08-23T00:57:59.670Z,0.00
2018-08-23T00:58:59.868Z,0.00
2018-08-23T01:00:00.057Z,0.00
2018-08-23T01:01:00.262Z,0.00
2018-08-23T01:02:00.456Z,0.00
2018-08-23T01:03:00.649Z,0.00
2018-08-23T01:04:00.846Z,0.00
2018-08-23T01:05:01.038Z,0.00
2018-08-23T01:06:01.231Z,0.00
2018-08-23T01:07:01.424Z,0.00
2018-08-23T01:08:01.623Z,0.00
2018-08-23T01:09:01.813Z,0.00
2018-08-23T01:10:02.008Z,0.00
2018-08-23T01:11:02.199Z,0.00
2018-08-23T01:12:02.391Z,0.00
2018-08-23T01:13:02.585Z,0.00
2018-08-23T01:14:02.784Z,0.00
2018-08-23T01:15:02.972Z,0.00
2018-08-23T01:16:03.187Z,0.00
2018-08-23T01:17:03.387Z,0.00
2018-08-23T01:18:03.551Z,0.00
2018-08-23T01:19:03.743Z,0.00
2018-08-23T01:20:03.948Z,0.00
2018-08-23T01:21:04.138Z,0.00
2018-08-23T01:22:04.336Z,0.00
2018-08-23T01:23:04.536Z,0.00
2018-08-23T01:24:04.725Z,0.00
2018-08-23T01:25:04.924Z,0.00
2018-08-23T01:26:05.122Z,0.00
2018-08-23T01:27:05.302Z,0.00
2018-08-23T01:28:05.497Z,0.00
2018-08-23T01:29:05.689Z,0.00
2018-08-23T01:30:05.880Z,0.00
2018-08-23T01:31:06.075Z,0.00
2018-08-23T01:32:06.271Z,0.00
2018-08-23T01:33:06.462Z,0.00
2018-08-23T01:34:06.660Z,0.00
2018-08-23T01:35:06.857Z,0.00
2018-08-23T01:36:07.057Z,0.00
2018-08-23T01:37:07.243Z,0.00
2018-08-23T01:38:07.438Z,0.00
2018-08-23T01:39:07.630Z,0.00
2018-08-23T01:40:07.824Z,0.00
2018-08-23T01:41:08.023Z,0.00
2018-08-23T01:42:08.210Z,0.00
2018-08-23T01:43:08.403Z,0.00
2018-08-23T01:44:08.596Z,0.00
2018-08-23T01:45:08.788Z,0.00
2018-08-23T01:46:08.985Z,0.00
2018-08-23T01:47:09.173Z,0.00
2018-08-23T01:48:09.369Z,0.00
2018-08-23T01:49:09.566Z,0.00
2018-08-23T01:50:09.759Z,0.00
2018-08-23T01:51:09.959Z,0.00
2018-08-23T01:52:10.151Z,0.00
2018-08-23T01:53:10.338Z,0.00
2018-08-23T01:54:10.532Z,0.00
2018-08-23T01:55:10.724Z,0.00
2018-08-23T01:56:10.916Z,0.00
2018-08-23T01:57:11.107Z,0.00
2018-08-23T01:58:11.304Z,0.00
2018-08-23T01:59:11.501Z,0.00
2018-08-23T02:00:11.686Z,0.00
2018-08-23T02:01:11.879Z,0.00
2018-08-23T02:02:12.071Z,0.00
2018-08-23T02:03:12.264Z,0.00
2018-08-23T02:04:12.459Z,0.00
2018-08-23T02:05:12.652Z,0.00
2018-08-23T02:06:12.847Z,0.00
2018-08-23T02:07:13.068Z,0.00
2018-08-23T02:08:13.215Z,0.00
2018-08-23T02:09:13.413Z,0.00
2018-08-23T02:10:13.612Z,0.00
2018-08-23T02:11:13.802Z,0.00
2018-08-23T02:12:13.997Z,0.00
2018-08-23T02:13:14.193Z,0.00
2018-08-23T02:14:14.381Z,0.00
2018-08-23T02:15:14.587Z,0.00
2018-08-23T02:16:14.771Z,0.00
2018-08-23T02:17:14.970Z,0.00
2018-08-23T02:18:15.159Z,0.00
2018-08-23T02:19:15.350Z,0.00
2018-08-23T02:20:15.543Z,0.00
2018-08-23T02:21:15.736Z,0.00
2018-08-23T02:22:15.931Z,0.00
2018-08-23T02:23:16.125Z,0.00
2018-08-23T02:24:16.316Z,0.00
2018-08-23T02:25:16.509Z,0.00
2018-08-23T02:26:16.698Z,0.00
2018-08-23T02:27:16.890Z,0.00
2018-08-23T02:28:17.084Z,0.00
2018-08-23T02:29:17.275Z,0.00
2018-08-23T02:30:17.472Z,0.00
2018-08-23T02:31:17.663Z,0.00
2018-08-23T02:32:17.855Z,0.00
2018-08-23T02:33:18.049Z,0.00
2018-08-23T02:34:18.239Z,0.00
2018-08-23T02:35:18.437Z,0.00
2018-08-23T02:36:18.629Z,0.00
2018-08-23T02:37:18.833Z,0.00
2018-08-23T02:38:19.030Z,0.00
2018-08-23T02:39:19.216Z,0.00
2018-08-23T02:40:19.409Z,0.00
2018-08-23T02:41:19.616Z,0.00
2018-08-23T02:42:19.791Z,0.00
2018-08-23T02:43:19.984Z,0.00
2018-08-23T02:44:20.175Z,0.00
2018-08-23T02:45:20.365Z,0.00
2018-08-23T02:46:20.565Z,0.00
2018-08-23T02:47:20.756Z,0.00
2018-08-23T02:48:20.946Z,0.00
2018-08-23T02:49:21.146Z,0.00
2018-08-23T02:50:21.334Z,0.00
2018-08-23T02:51:21.526Z,0.00
2018-08-23T02:52:21.715Z,0.00
2018-08-23T02:53:21.908Z,0.00
2018-08-23T02:54:22.104Z,0.00
2018-08-23T02:55:22.292Z,0.00
2018-08-23T02:56:22.484Z,0.00
2018-08-23T02:57:22.669Z,0.00
2018-08-23T02:58:22.863Z,0.00
2018-08-23T02:59:23.057Z,0.00
2018-08-23T03:00:23.288Z,0.00
2018-08-23T03:01:23.440Z,0.00
2018-08-23T03:02:23.636Z,0.00
2018-08-23T03:03:23.826Z,0.00
2018-08-23T03:04:24.015Z,0.00
2018-08-23T03:05:24.211Z,0.00
2018-08-23T03:06:24.398Z,0.00
2018-08-23T03:07:24.594Z,0.00
2018-08-23T03:08:24.782Z,0.00
2018-08-23T03:09:24.968Z,0.00
2018-08-23T03:10:25.165Z,0.00
2018-08-23T03:11:25.349Z,0.00
2018-08-23T03:12:25.542Z,0.00
2018-08-23T03:13:25.729Z,0.00
2018-08-23T03:14:25.930Z,0.00
2018-08-23T03:15:26.124Z,0.00
2018-08-23T03:16:26.314Z,0.00
2018-08-23T03:17:26.512Z,0.00
2018-08-23T03:18:26.693Z,0.00
2018-08-23T03:19:26.888Z,0.00
2018-08-23T03:20:27.082Z,0.00
2018-08-23T03:21:27.277Z,0.00
2018-08-23T03:22:27.465Z,0.00
2018-08-23T03:23:27.658Z,0.00
2018-08-23T03:24:27.846Z,0.00
2018-08-23T03:25:28.040Z,0.00
2018-08-23T03:26:28.234Z,0.00
2018-08-23T03:27:28.425Z,0.00
2018-08-23T03:28:28.614Z,0.00
2018-08-23T03:29:28.812Z,0.00
2018-08-23T03:30:29.008Z,0.00
2018-08-23T03:31:29.188Z,0.00
2018-08-23T03:32:29.386Z,0.00
2018-08-23T03:33:29.571Z,0.00
2018-08-23T03:34:29.764Z,0.00
2018-08-23T03:35:29.965Z,0.00
2018-08-23T03:36:30.148Z,0.00
2018-08-23T03:37:30.345Z,0.00
2018-08-23T03:38:30.537Z,0.00
2018-08-23T03:39:30.725Z,0.00
2018-08-23T03:40:30.916Z,0.00
2018-08-23T03:41:31.104Z,0.00
2018-08-23T03:42:31.298Z,0.00
2018-08-23T03:43:31.489Z,0.00
2018-08-23T03:44:31.678Z,4.00
2018-08-23T03:45:31.870Z,4.00
2018-08-23T03:46:32.067Z,0.00
2018-08-23T03:47:32.258Z,4.00
2018-08-23T03:48:32.448Z,4.00
2018-08-23T03:49:32.640Z,4.00
2018-08-23T03:50:32.835Z,4.00
2018-08-23T03:51:33.025Z,4.00
2018-08-23T03:52:33.330Z,8.00
2018-08-23T03:53:33.408Z,8.00
2018-08-23T03:54:33.599Z,12.00
2018-08-23T03:55:33.810Z,8.00
2018-08-23T03:56:34.000Z,12.00
2018-08-23T03:57:34.201Z,16.00
2018-08-23T03:58:34.383Z,20.00
2018-08-23T03:59:34.580Z,20.00
2018-08-23T04:00:34.770Z,28.00
2018-08-23T04:01:34.963Z,32.00
2018-08-23T04:02:35.153Z,36.00
2018-08-23T04:03:35.344Z,44.00
2018-08-23T04:04:35.544Z,48.00
2018-08-23T04:05:35.733Z,56.00
2018-08-23T04:06:35.927Z,68.00
2018-08-23T04:07:36.119Z,72.00
2018-08-23T04:08:36.310Z,84.00
2018-08-23T04:09:36.500Z,96.00
2018-08-23T04:10:36.695Z,108.00
2018-08-23T04:11:36.888Z,124.00
2018-08-23T04:12:37.082Z,140.00
2018-08-23T04:13:37.266Z,156.00
2018-08-23T04:14:37.455Z,180.00
2018-08-23T04:15:37.650Z,200.00
2018-08-23T04:16:37.851Z,224.00
2018-08-23T04:17:38.039Z,244.00
2018-08-23T04:18:38.229Z,272.00
2018-08-23T04:19:38.413Z,300.00
2018-08-23T04:20:38.607Z,332.00
2018-08-23T04:21:38.794Z,360.00
2018-08-23T04:22:38.997Z,392.00
2018-08-23T04:23:39.182Z,428.00
2018-08-23T04:24:39.373Z,460.00
2018-08-23T04:25:39.565Z,500.00
2018-08-23T04:26:39.752Z,536.00
2018-08-23T04:27:39.950Z,580.00
2018-08-23T04:28:40.137Z,620.00
2018-08-23T04:29:40.328Z,664.00
2018-08-23T04:30:40.521Z,712.00
2018-08-23T04:31:40.708Z,764.00
2018-08-23T04:32:40.903Z,816.00
2018-08-23T04:33:41.103Z,872.00
2018-08-23T04:34:41.292Z,932.00
2018-08-23T04:35:41.488Z,996.00
2018-08-23T04:36:41.677Z,1056.00
2018-08-23T04:37:41.868Z,1124.00
2018-08-23T04:38:42.058Z,1192.00
2018-08-23T04:39:42.248Z,1264.00
2018-08-23T04:40:42.440Z,1328.00
2018-08-23T04:41:42.632Z,1400.00
2018-08-23T04:42:42.824Z,1476.00
2018-08-23T04:43:43.019Z,1552.00
2018-08-23T04:44:43.212Z,1636.00
2018-08-23T04:45:43.409Z,1732.00
2018-08-23T04:46:43.609Z,1832.00
2018-08-23T04:47:43.797Z,1912.00
2018-08-23T04:48:43.991Z,2004.00
2018-08-23T04:49:44.182Z,2100.00
2018-08-23T04:50:44.374Z,2208.00
2018-08-23T04:51:44.568Z,2308.00
2018-08-23T04:52:44.757Z,2452.00
2018-08-23T04:53:44.944Z,2792.00
2018-08-23T04:54:45.132Z,2880.00
2018-08-23T04:55:45.324Z,2876.00
2018-08-23T04:56:45.521Z,2928.00
2018-08-23T04:57:45.708Z,3016.00
2018-08-23T04:58:45.900Z,3232.00
2018-08-23T04:59:46.090Z,3244.00
2018-08-23T05:00:46.284Z,3392.00
2018-08-23T05:01:46.478Z,3872.00
2018-08-23T05:02:46.665Z,4052.00
2018-08-23T05:03:46.860Z,4092.00
2018-08-23T05:04:47.057Z,4088.00
2018-08-23T05:05:47.245Z,4016.00
2018-08-23T05:06:47.439Z,5056.00
2018-08-23T05:07:47.631Z,7640.00
2018-08-23T05:08:47.817Z,9064.00
2018-08-23T05:09:48.015Z,9284.00
2018-08-23T05:10:48.207Z,10976.00
2018-08-23T05:11:48.404Z,12096.00
2018-08-23T05:12:48.593Z,13056.00
2018-08-23T05:13:48.778Z,13664.00
2018-08-23T05:14:48.968Z,14112.00
2018-08-23T05:15:49.165Z,14240.00
2018-08-23T05:16:49.373Z,10288.00
2018-08-23T05:17:49.567Z,8728.00
2018-08-23T05:18:49.774Z,11452.00
2018-08-23T05:19:49.951Z,14368.00
2018-08-23T05:20:50.141Z,14848.00
2018-08-23T05:21:50.347Z,10876.00
2018-08-23T05:22:50.537Z,10752.00
2018-08-23T05:23:50.731Z,15008.00
2018-08-23T05:24:50.919Z,18912.00
2018-08-23T05:25:51.115Z,21568.00
2018-08-23T05:26:51.307Z,22944.00
2018-08-23T05:27:51.506Z,23520.00
2018-08-23T05:28:51.699Z,24192.00
2018-08-23T05:29:51.971Z,25056.00
2018-08-23T05:30:52.089Z,25696.00
2018-08-23T05:31:52.280Z,26304.00
2018-08-23T05:32:52.470Z,26624.00
2018-08-23T05:33:52.669Z,26752.00
2018-08-23T05:34:52.858Z,26720.00
2018-08-23T05:35:53.055Z,26240.00
2018-08-23T05:36:53.251Z,26016.00
2018-08-23T05:37:53.442Z,26432.00
2018-08-23T05:38:53.634Z,27616.00
2018-08-23T05:39:53.828Z,29344.00
2018-08-23T05:40:54.023Z,31200.00
2018-08-23T05:41:54.221Z,32704.00
2018-08-23T05:42:54.413Z,33760.00
2018-08-23T05:43:54.631Z,34144.00
2018-08-23T05:44:54.840Z,34304.00
2018-08-23T05:45:55.023Z,34240.00
2018-08-23T05:46:55.224Z,34144.00
2018-08-23T05:47:55.416Z,34656.00
2018-08-23T05:48:55.615Z,35424.00
2018-08-23T05:49:55.811Z,36832.00
2018-08-23T05:50:56.024Z,37952.00
2018-08-23T05:51:56.201Z,38816.00
2018-08-23T05:52:56.393Z,39584.00
2018-08-23T05:53:56.581Z,40064.00
2018-08-23T05:54:56.780Z,41024.00
2018-08-23T05:55:56.976Z,42048.00
2018-08-23T05:56:57.171Z,42848.00
2018-08-23T05:57:57.365Z,43552.00
2018-08-23T05:58:57.567Z,44128.00
2018-08-23T05:59:57.776Z,44576.00
2018-08-23T06:00:57.975Z,45472.00
2018-08-23T06:01:58.176Z,46816.00
2018-08-23T06:02:58.378Z,48320.00
2018-08-23T06:03:58.566Z,49664.00
2018-08-23T06:04:58.765Z,49984.00
2018-08-23T06:05:58.958Z,50400.00
2018-08-23T06:06:59.167Z,49984.00
2018-08-23T06:07:59.360Z,49344.00
2018-08-23T06:08:59.562Z,49472.00
2018-08-23T06:09:59.765Z,49824.00
2018-08-23T06:10:59.954Z,50720.00
2018-08-23T06:12:00.151Z,51456.00
2018-08-23T06:13:00.350Z,52032.00
2018-08-23T06:14:00.567Z,52480.00
2018-08-23T06:15:00.745Z,52928.00
2018-08-23T06:16:00.949Z,53280.00
2018-08-23T06:17:01.147Z,54272.00
2018-08-23T06:18:01.339Z,54912.00
2018-08-23T06:19:01.544Z,56288.00
2018-08-23T06:20:01.814Z,57952.00
2018-08-23T06:21:01.936Z,59552.00
2018-08-23T06:22:02.141Z,60896.00
2018-08-23T06:23:02.336Z,61280.00
2018-08-23T06:24:02.537Z,61536.00
2018-08-23T06:25:02.735Z,61984.00
2018-08-23T06:26:02.929Z,62944.00
2018-08-23T06:27:03.126Z,58496.00
2018-08-23T06:28:03.331Z,63456.00
2018-08-23T06:29:03.536Z,65856.00
2018-08-23T06:30:03.735Z,66272.00
2018-08-23T06:31:03.933Z,66080.00
2018-08-23T06:32:04.133Z,65600.00
2018-08-23T06:33:04.455Z,65536.00
2018-08-23T06:34:04.592Z,65344.00
2018-08-23T06:35:04.729Z,66240.00
2018-08-23T06:36:04.929Z,67168.00
2018-08-23T06:37:05.128Z,67968.00
2018-08-23T06:38:05.325Z,68480.00
2018-08-23T06:39:05.525Z,69216.00
2018-08-23T06:40:05.729Z,69824.00
2018-08-23T06:41:05.927Z,70368.00
2018-08-23T06:42:06.126Z,70208.00
2018-08-23T06:43:06.325Z,71328.00
2018-08-23T06:44:06.525Z,71904.00
2018-08-23T06:45:06.724Z,73440.00
2018-08-23T06:46:07.027Z,74176.00
2018-08-23T06:47:07.132Z,74304.00
2018-08-23T06:48:07.329Z,73440.00
2018-08-23T06:49:07.526Z,73152.00
2018-08-23T06:50:07.724Z,72544.00
2018-08-23T06:51:08.003Z,73376.00
2018-08-23T06:52:08.154Z,74240.00
2018-08-23T06:53:08.327Z,74368.00
2018-08-23T06:54:08.527Z,74560.00
2018-08-23T06:55:08.752Z,73728.00
2018-08-23T06:56:08.930Z,73152.00
2018-08-23T06:57:09.128Z,71616.00
2018-08-23T06:58:09.329Z,70592.00
2018-08-23T06:59:09.519Z,70368.00
2018-08-23T07:00:09.719Z,70560.00
2018-08-23T07:01:09.917Z,71584.00
2018-08-23T07:02:10.124Z,72288.00
2018-08-23T07:03:10.324Z,73440.00
2018-08-23T07:04:10.523Z,72928.00
2018-08-23T07:05:10.722Z,73152.00
2018-08-23T07:06:10.926Z,73344.00
2018-08-23T07:07:11.130Z,72672.00
2018-08-23T07:08:11.330Z,72704.00
2018-08-23T07:09:11.535Z,72992.00
2018-08-23T07:10:11.734Z,73472.00
2018-08-23T07:11:11.937Z,72384.00
2018-08-23T07:12:12.142Z,68736.00
2018-08-23T07:13:12.340Z,64512.00
2018-08-23T07:14:12.542Z,60480.00
2018-08-23T07:15:12.750Z,58016.00
2018-08-23T07:16:12.957Z,59648.00
2018-08-23T07:17:13.201Z,64384.00
2018-08-23T07:18:13.381Z,70144.00
2018-08-23T07:19:13.561Z,74208.00
2018-08-23T07:20:13.766Z,76768.00
2018-08-23T07:21:13.973Z,75936.00
2018-08-23T07:22:14.165Z,72736.00
2018-08-23T07:23:14.366Z,68800.00
2018-08-23T07:24:14.624Z,65984.00
2018-08-23T07:25:14.772Z,66240.00
2018-08-23T07:26:14.996Z,69824.00
2018-08-23T07:27:15.174Z,75904.00
2018-08-23T07:28:15.373Z,81664.00
2018-08-23T07:29:15.582Z,85568.00
2018-08-23T07:30:15.803Z,85600.00
2018-08-23T07:31:15.994Z,83168.00
2018-08-23T07:32:16.198Z,79808.00
2018-08-23T07:33:16.413Z,77600.00
2018-08-23T07:34:16.605Z,77664.00
2018-08-23T07:35:16.814Z,79552.00
2018-08-23T07:36:17.019Z,82368.00
2018-08-23T07:37:17.219Z,84768.00
2018-08-23T07:38:17.420Z,86112.00
2018-08-23T07:39:17.639Z,86432.00
2018-08-23T07:40:17.828Z,86016.00
2018-08-23T07:41:18.029Z,86592.00
2018-08-23T07:42:18.256Z,87424.00
2018-08-23T07:43:18.443Z,88800.00
2018-08-23T07:44:18.644Z,89440.00
2018-08-23T07:45:18.844Z,88448.00
2018-08-23T07:46:19.052Z,87200.00
2018-08-23T07:47:19.252Z,85568.00
2018-08-23T07:48:19.456Z,84928.00
2018-08-23T07:49:19.744Z,85728.00
2018-08-23T07:50:19.860Z,86112.00
2018-08-23T07:51:20.074Z,90432.00
2018-08-23T07:52:20.261Z,86688.00
2018-08-23T07:53:20.503Z,92192.00
2018-08-23T07:54:20.668Z,90912.00
2018-08-23T07:55:20.871Z,73632.00
2018-08-23T07:56:21.082Z,88640.00
2018-08-23T07:57:21.289Z,87744.00
2018-08-23T07:58:21.488Z,87648.00
2018-08-23T07:59:21.695Z,89664.00
2018-08-23T08:00:21.899Z,91776.00
2018-08-23T08:01:22.102Z,89632.00
2018-08-23T08:02:22.319Z,93504.00
2018-08-23T08:03:22.524Z,92768.00
2018-08-23T08:04:22.731Z,92704.00
2018-08-23T08:05:22.937Z,92064.00
2018-08-23T08:06:23.139Z,91744.00
2018-08-23T08:07:23.338Z,91904.00
2018-08-23T08:08:23.548Z,91616.00
2018-08-23T08:09:23.750Z,92064.00
2018-08-23T08:10:23.952Z,92800.00
2018-08-23T08:11:24.157Z,93344.00
2018-08-23T08:12:24.361Z,93024.00
2018-08-23T08:13:24.563Z,92736.00
2018-08-23T08:14:24.773Z,92288.00
2018-08-23T08:15:24.972Z,92128.00
2018-08-23T08:16:25.183Z,91744.00
2018-08-23T08:17:25.383Z,91648.00
2018-08-23T08:18:25.590Z,92192.00
2018-08-23T08:19:25.795Z,91264.00
2018-08-23T08:20:25.996Z,92992.00
2018-08-23T08:21:26.196Z,94720.00
2018-08-23T08:22:26.402Z,96352.00
2018-08-23T08:23:26.609Z,97632.00
2018-08-23T08:24:26.818Z,95776.00
2018-08-23T08:25:27.018Z,94432.00
2018-08-23T08:26:27.222Z,90560.00
2018-08-23T08:27:27.425Z,87136.00
2018-08-23T08:28:27.634Z,86304.00
2018-08-23T08:29:27.841Z,86912.00
2018-08-23T08:30:28.037Z,90304.00
2018-08-23T08:31:28.244Z,92160.00
2018-08-23T08:32:28.452Z,94304.00
2018-08-23T08:33:28.662Z,94048.00
2018-08-23T08:34:28.878Z,91552.00
2018-08-23T08:35:29.085Z,89184.00
2018-08-23T08:36:29.314Z,86144.00
2018-08-23T08:37:29.524Z,85856.00
2018-08-23T08:38:29.721Z,86400.00
2018-08-23T08:39:29.928Z,88160.00
2018-08-23T08:40:30.151Z,89568.00
2018-08-23T08:41:30.338Z,90816.00
2018-08-23T08:42:30.547Z,91520.00
2018-08-23T08:43:30.754Z,92832.00
2018-08-23T08:44:30.962Z,92352.00
2018-08-23T08:45:31.162Z,92864.00
2018-08-23T08:46:31.370Z,94816.00
2018-08-23T08:47:31.576Z,98080.00
2018-08-23T08:48:31.777Z,102944.00
2018-08-23T08:49:31.977Z,105568.00
2018-08-23T08:50:32.290Z,104512.00
2018-08-23T08:51:32.403Z,99360.00
2018-08-23T08:52:32.597Z,88704.00
2018-08-23T08:53:32.800Z,81024.00
2018-08-23T08:54:33.002Z,78080.00
2018-08-23T08:55:33.210Z,77440.00
2018-08-23T08:56:33.413Z,76736.00
2018-08-23T08:57:33.630Z,76256.00
2018-08-23T08:58:33.826Z,73824.00
2018-08-23T08:59:34.038Z,72608.00
2018-08-23T09:00:34.236Z,72960.00
2018-08-23T09:01:34.450Z,74240.00
2018-08-23T09:02:34.653Z,75904.00
2018-08-23T09:03:34.859Z,80384.00
2018-08-23T09:04:35.063Z,84256.00
2018-08-23T09:05:35.277Z,86624.00
2018-08-23T09:06:35.485Z,86240.00
2018-08-23T09:07:35.690Z,84448.00
2018-08-23T09:08:35.898Z,83360.00
2018-08-23T09:09:36.114Z,82528.00
2018-08-23T09:10:36.307Z,81888.00
2018-08-23T09:11:36.515Z,81600.00
2018-08-23T09:12:36.721Z,79904.00
2018-08-23T09:13:36.931Z,75392.00
2018-08-23T09:14:37.143Z,66208.00
2018-08-23T09:15:37.349Z,62208.00
2018-08-23T09:16:37.553Z,67360.00
2018-08-23T09:17:37.761Z,76000.00
2018-08-23T09:18:38.029Z,82560.00
2018-08-23T09:19:38.172Z,86176.00
2018-08-23T09:20:38.403Z,84576.00
2018-08-23T09:21:38.591Z,77696.00
2018-08-23T09:22:38.789Z,73152.00
2018-08-23T09:23:38.990Z,72928.00
2018-08-23T09:24:39.199Z,73408.00
2018-08-23T09:25:39.401Z,73248.00
2018-08-23T09:26:39.612Z,76000.00
2018-08-23T09:27:39.818Z,78560.00
2018-08-23T09:28:40.023Z,80960.00
2018-08-23T09:29:40.228Z,80832.00
2018-08-23T09:30:40.436Z,79328.00
2018-08-23T09:31:40.642Z,77856.00
2018-08-23T09:32:40.845Z,77920.00
2018-08-23T09:33:41.064Z,78592.00
2018-08-23T09:34:41.263Z,78752.00
2018-08-23T09:35:41.474Z,77760.00
2018-08-23T09:36:41.680Z,77504.00
2018-08-23T09:37:41.910Z,76480.00
2018-08-23T09:38:42.089Z,77888.00
2018-08-23T09:39:42.288Z,78912.00
2018-08-23T09:40:42.495Z,79456.00
2018-08-23T09:41:42.702Z,81440.00
2018-08-23T09:42:42.907Z,84320.00
2018-08-23T09:43:43.116Z,84832.00
2018-08-23T09:44:43.324Z,82400.00
2018-08-23T09:45:43.532Z,80160.00
2018-08-23T09:46:43.735Z,79200.00
2018-08-23T09:47:43.938Z,78656.00
2018-08-23T09:48:44.146Z,76320.00
2018-08-23T09:49:44.350Z,78624.00
2018-08-23T09:50:44.595Z,82592.00
2018-08-23T09:51:44.773Z,82336.00
2018-08-23T09:52:44.977Z,81664.00
2018-08-23T09:53:45.185Z,78656.00
2018-08-23T09:54:45.396Z,77216.00
2018-08-23T09:55:45.598Z,74944.00
2018-08-23T09:56:45.880Z,76704.00
2018-08-23T09:57:46.010Z,62432.00
2018-08-23T09:58:46.281Z,60416.00
2018-08-23T09:59:46.425Z,56512.00
2018-08-23T10:00:46.631Z,77696.00
2018-08-23T10:01:46.838Z,79168.00
2018-08-23T10:02:47.042Z,78048.00
2018-08-23T10:03:47.247Z,56256.00
2018-08-23T10:04:47.536Z,67232.00
2018-08-23T10:05:47.661Z,78368.00
2018-08-23T10:06:47.864Z,78048.00
2018-08-23T10:07:48.080Z,76256.00
2018-08-23T10:08:48.283Z,62240.00
2018-08-23T10:09:48.486Z,62176.00
2018-08-23T10:10:48.692Z,78432.00
2018-08-23T10:11:48.959Z,76992.00
2018-08-23T10:12:49.108Z,77600.00
2018-08-23T10:13:49.314Z,77280.00
2018-08-23T10:14:49.519Z,76032.00
2018-08-23T10:15:49.731Z,75712.00
2018-08-23T10:16:49.938Z,76128.00
2018-08-23T10:17:50.145Z,75264.00
2018-08-23T10:18:50.351Z,75744.00
2018-08-23T10:19:50.551Z,76224.00
2018-08-23T10:20:50.757Z,74976.00
2018-08-23T10:21:50.966Z,75168.00
2018-08-23T10:22:51.168Z,74784.00
2018-08-23T10:23:51.379Z,75552.00
2018-08-23T10:24:51.583Z,75424.00
2018-08-23T10:25:51.781Z,74848.00
2018-08-23T10:26:51.991Z,75392.00
2018-08-23T10:27:52.200Z,72960.00
2018-08-23T10:28:52.407Z,73280.00
2018-08-23T10:29:52.610Z,71904.00
2018-08-23T10:30:52.820Z,73952.00
2018-08-23T10:31:53.023Z,73120.00
2018-08-23T10:32:53.233Z,72672.00
2018-08-23T10:33:53.440Z,69440.00
2018-08-23T10:34:53.645Z,68000.00
2018-08-23T10:35:53.860Z,68960.00
2018-08-23T10:36:54.063Z,68736.00
2018-08-23T10:37:54.271Z,69696.00
2018-08-23T10:38:54.478Z,68864.00
2018-08-23T10:39:54.683Z,67392.00
2018-08-23T10:40:54.890Z,66080.00
2018-08-23T10:41:55.093Z,65664.00
2018-08-23T10:42:55.301Z,65600.00
2018-08-23T10:43:55.505Z,65984.00
2018-08-23T10:44:55.714Z,65536.00
2018-08-23T10:45:55.914Z,64192.00
2018-08-23T10:46:56.116Z,65760.00
2018-08-23T10:47:56.320Z,66400.00
2018-08-23T10:48:56.532Z,66912.00
2018-08-23T10:49:56.737Z,67360.00
2018-08-23T10:50:56.995Z,67904.00
2018-08-23T10:51:57.149Z,55968.00
2018-08-23T10:52:57.355Z,70304.00
2018-08-23T10:53:57.570Z,70944.00
2018-08-23T10:54:57.773Z,72096.00
2018-08-23T10:55:57.978Z,59232.00
2018-08-23T10:56:58.188Z,47072.00
2018-08-23T10:57:58.393Z,27680.00
2018-08-23T10:58:58.600Z,48896.00
2018-08-23T10:59:58.807Z,44896.00
2018-08-23T11:00:59.008Z,67808.00
2018-08-23T11:01:59.214Z,69792.00
2018-08-23T11:02:59.422Z,66464.00
2018-08-23T11:03:59.624Z,62176.00
2018-08-23T11:04:59.832Z,63744.00
2018-08-23T11:06:00.036Z,63168.00
2018-08-23T11:07:00.233Z,62848.00
2018-08-23T11:08:00.439Z,62624.00
2018-08-23T11:09:00.643Z,62464.00
2018-08-23T11:10:00.850Z,61952.00
2018-08-23T11:11:01.060Z,60160.00
2018-08-23T11:12:01.263Z,59104.00
2018-08-23T11:13:01.467Z,57216.00
2018-08-23T11:14:01.677Z,56704.00
2018-08-23T11:15:01.885Z,58208.00
2018-08-23T11:16:02.085Z,58208.00
2018-08-23T11:17:02.413Z,58400.00
2018-08-23T11:18:02.507Z,58848.00
2018-08-23T11:19:02.711Z,56480.00
2018-08-23T11:20:02.916Z,55872.00
2018-08-23T11:21:03.119Z,55360.00
2018-08-23T11:22:03.325Z,54784.00
2018-08-23T11:23:03.536Z,54176.00
2018-08-23T11:24:03.730Z,46944.00
2018-08-23T11:25:03.941Z,33472.00
2018-08-23T11:26:04.149Z,22016.00
2018-08-23T11:27:04.369Z,20832.00
2018-08-23T11:28:04.576Z,20576.00
2018-08-23T11:29:04.792Z,20480.00
2018-08-23T11:30:04.997Z,20448.00
2018-08-23T11:31:05.188Z,20448.00
2018-08-23T11:32:05.403Z,20416.00
2018-08-23T11:33:05.601Z,20128.00
2018-08-23T11:34:05.801Z,19744.00
2018-08-23T11:35:06.080Z,19328.00
2018-08-23T11:36:06.216Z,19008.00
2018-08-23T11:37:06.418Z,18912.00
2018-08-23T11:38:06.618Z,18848.00
2018-08-23T11:39:06.819Z,18848.00
2018-08-23T11:40:07.029Z,18848.00
2018-08-23T11:41:07.234Z,18624.00
2018-08-23T11:42:07.437Z,18240.00
2018-08-23T11:43:07.646Z,17984.00
2018-08-23T11:44:07.847Z,17632.00
2018-08-23T11:45:08.053Z,17344.00
2018-08-23T11:46:08.253Z,17088.00
2018-08-23T11:47:08.457Z,16896.00
2018-08-23T11:48:08.656Z,16832.00
2018-08-23T11:49:08.859Z,16864.00
2018-08-23T11:50:09.057Z,16864.00
2018-08-23T11:51:09.260Z,16864.00
2018-08-23T11:52:09.468Z,16704.00
2018-08-23T11:53:09.758Z,16324.00
2018-08-23T11:54:09.860Z,16328.00
2018-08-23T11:55:10.065Z,16236.00
2018-08-23T11:56:10.266Z,16292.00
2018-08-23T11:57:10.470Z,16280.00
2018-08-23T11:58:10.718Z,16084.00
2018-08-23T11:59:10.929Z,15948.00
2018-08-23T12:00:11.071Z,15984.00
2018-08-23T12:01:11.264Z,16072.00
2018-08-23T12:02:11.467Z,16020.00
2018-08-23T12:03:11.670Z,16076.00
2018-08-23T12:04:11.869Z,15940.00
2018-08-23T12:05:12.069Z,15908.00
2018-08-23T12:06:12.273Z,15756.00
2018-08-23T12:07:12.481Z,15600.00
2018-08-23T12:08:12.683Z,15396.00
2018-08-23T12:09:12.877Z,14920.00
2018-08-23T12:10:13.076Z,15672.00
2018-08-23T12:11:13.266Z,16032.00
2018-08-23T12:12:13.468Z,16320.00
2018-08-23T12:13:13.660Z,16224.00
2018-08-23T12:14:13.864Z,16256.00
2018-08-23T12:15:14.070Z,16256.00
2018-08-23T12:16:14.296Z,16416.00
2018-08-23T12:17:14.474Z,15624.00
2018-08-23T12:18:14.669Z,16800.00